Time;durP1;ratioP1;P1;durP2;ratioP2;P2;SDS_P1;SDS_P2;PMS_P1;PMS_P2;Temp;Humidity;BMP_temperature;BMP_pressure;BME280_temperature;BME280_humidity;BME280_pressure;Samples;Min_cycle;Max_cycle;Signal;HPM_P1;HPM_P2
2021/03/04 00:02:34;;;;;;;114.83;43.10;;;;;;;;;;12963479;22;20663;-78
2021/03/04 00:07:39;;;;;;;105.83;41.00;;;;;;;;;;12975015;22;20201;-78
2021/03/04 00:12:42;;;;;;;115.90;44.37;;;;;;;;;;12952403;22;20198;-79
2021/03/04 00:17:44;;;;;;;119.23;44.37;;;;;;;;;;12953165;22;20167;-78
2021/03/04 00:22:46;;;;;;;115.03;43.60;;;;;;;;;;12973980;22;20178;-77
2021/03/04 00:27:52;;;;;;;116.20;44.33;;;;;;;;;;12958929;22;20250;-78
2021/03/04 00:32:54;;;;;;;119.50;42.50;;;;;;;;;;12971914;22;20261;-77
2021/03/04 00:37:56;;;;;;;119.27;43.43;;;;;;;;;;12971189;22;20197;-77
2021/03/04 00:42:59;;;;;;;111.83;43.37;;;;;;;;;;12950595;22;20261;-77
2021/03/04 00:48:01;;;;;;;112.40;42.13;;;;;;;;;;12952531;22;20178;-77
2021/03/04 00:53:03;;;;;;;107.87;41.33;;;;;;;;;;12970868;22;20206;-77
2021/03/04 00:58:06;;;;;;;106.70;39.50;;;;;;;;;;12951639;22;20249;-79
2021/03/04 01:03:08;;;;;;;102.70;40.50;;;;;;;;;;12947043;22;20194;-78
2021/03/04 01:08:10;;;;;;;92.30;38.57;;;;;;;;;;12974248;22;20179;-78
2021/03/04 01:13:13;;;;;;;96.83;38.80;;;;;;;;;;12973014;22;20216;-78
2021/03/04 01:18:16;;;;;;;89.60;37.07;;;;;;;;;;12949995;22;20178;-78
2021/03/04 01:23:18;;;;;;;86.50;37.13;;;;;;;;;;12972971;22;20205;-78
2021/03/04 01:28:36;;;;;;;82.23;35.43;;;;;;;;;;12968882;22;20627;-77
2021/03/04 01:33:38;;;;;;;83.00;32.80;;;;;;;;;;12952007;22;20193;-77
2021/03/04 01:38:40;;;;;;;77.33;33.33;;;;;;;;;;12969885;22;20635;-77
2021/03/04 01:43:49;;;;;;;75.30;33.33;;;;;;;;;;12974005;22;20228;-76
2021/03/04 01:48:51;;;;;;;77.33;34.27;;;;;;;;;;12972218;22;20179;-76
2021/03/04 01:53:53;;;;;;;80.13;33.87;;;;;;;;;;12947395;22;20640;-79
2021/03/04 01:58:56;;;;;;;74.77;32.87;;;;;;;;;;12968916;22;20201;-77
2021/03/04 02:03:59;;;;;;;73.67;33.43;;;;;;;;;;12951873;22;20194;-77
2021/03/04 02:09:05;;;;;;;66.83;30.87;;;;;;;;;;12947636;22;20257;-77
2021/03/04 02:14:10;;;;;;;65.93;30.13;;;;;;;;;;12950091;22;20198;-77
2021/03/04 02:19:35;;;;;;;67.13;30.67;;;;;;;;;;12970286;22;20178;-77
2021/03/04 02:24:55;;;;;;;60.13;28.27;;;;;;;;;;12948700;22;20178;-77
2021/03/04 02:30:00;;;;;;;64.37;30.37;;;;;;;;;;12969141;22;20192;-77
2021/03/04 02:35:07;;;;;;;57.87;28.17;;;;;;;;;;12972252;22;20600;-78
2021/03/04 02:40:09;;;;;;;56.87;27.90;;;;;;;;;;12949096;22;20189;-77
2021/03/04 02:45:14;;;;;;;52.90;26.30;;;;;;;;;;12976423;22;20658;-78
2021/03/04 02:50:16;;;;;;;56.67;26.83;;;;;;;;;;12949100;22;20181;-77
2021/03/04 02:55:18;;;;;;;60.10;27.23;;;;;;;;;;12971743;22;20186;-77
2021/03/04 03:00:27;;;;;;;58.17;27.33;;;;;;;;;;12923329;22;20175;-76
2021/03/04 03:05:31;;;;;;;54.63;26.37;;;;;;;;;;12972772;22;20277;-77
2021/03/04 03:10:33;;;;;;;58.03;27.73;;;;;;;;;;12967624;22;20224;-77
2021/03/04 03:15:36;;;;;;;61.93;28.00;;;;;;;;;;12950736;22;20582;-78
2021/03/04 03:20:39;;;;;;;59.67;28.13;;;;;;;;;;12969244;22;20198;-77
2021/03/04 03:25:40;;;;;;;59.17;28.43;;;;;;;;;;12969791;22;20658;-77
2021/03/04 03:30:47;;;;;;;52.80;25.80;;;;;;;;;;12969164;22;20202;-77
2021/03/04 03:35:49;;;;;;;48.67;24.47;;;;;;;;;;12966565;22;20258;-77
2021/03/04 03:40:57;;;;;;;50.93;25.67;;;;;;;;;;12948514;22;20643;-76
2021/03/04 03:46:01;;;;;;;47.20;23.87;;;;;;;;;;12967741;22;20179;-77
2021/03/04 03:51:03;;;;;;;45.70;23.70;;;;;;;;;;12970461;22;20202;-76
2021/03/04 03:56:06;;;;;;;43.23;23.17;;;;;;;;;;12966532;22;20190;-77
2021/03/04 04:01:09;;;;;;;39.60;21.57;;;;;;;;;;12970536;22;20257;-76
2021/03/04 04:06:11;;;;;;;37.30;20.70;;;;;;;;;;12967568;22;20174;-77
2021/03/04 04:11:13;;;;;;;40.07;21.00;;;;;;;;;;12969525;22;20233;-78
2021/03/04 04:16:16;;;;;;;37.50;20.53;;;;;;;;;;12965351;22;20174;-78
2021/03/04 04:21:19;;;;;;;41.23;22.17;;;;;;;;;;12969859;22;20174;-77
2021/03/04 04:26:21;;;;;;;38.27;20.00;;;;;;;;;;12968549;22;20571;-77
2021/03/04 04:31:24;;;;;;;45.13;21.60;;;;;;;;;;12971410;22;20202;-77
2021/03/04 04:36:27;;;;;;;46.37;23.13;;;;;;;;;;12950883;22;20261;-77
2021/03/04 04:41:29;;;;;;;45.53;23.23;;;;;;;;;;12968104;22;20258;-78
2021/03/04 04:46:31;;;;;;;46.53;22.70;;;;;;;;;;12949644;22;20181;-77
2021/03/04 04:51:36;;;;;;;48.77;22.73;;;;;;;;;;12945692;22;20202;-77
2021/03/04 04:56:39;;;;;;;46.70;24.03;;;;;;;;;;12973825;22;20257;-78
2021/03/04 05:01:41;;;;;;;47.00;24.20;;;;;;;;;;12970123;22;20969;-78
2021/03/04 05:06:47;;;;;;;48.30;24.37;;;;;;;;;;12972220;22;20258;-78
2021/03/04 05:11:49;;;;;;;52.40;25.03;;;;;;;;;;12972147;22;20210;-78
2021/03/04 05:16:59;;;;;;;50.60;24.43;;;;;;;;;;12950806;22;20253;-78
2021/03/04 05:22:02;;;;;;;50.17;24.47;;;;;;;;;;12972021;22;20282;-77
2021/03/04 05:27:04;;;;;;;48.00;23.77;;;;;;;;;;12972819;22;20182;-77
2021/03/04 05:32:07;;;;;;;50.20;24.33;;;;;;;;;;12970591;22;20277;-77
2021/03/04 05:37:13;;;;;;;54.40;26.30;;;;;;;;;;12972791;22;20166;-78
2021/03/04 05:42:15;;;;;;;48.00;23.33;;;;;;;;;;12951445;22;20253;-77
2021/03/04 05:47:18;;;;;;;44.00;21.37;;;;;;;;;;12949707;22;20209;-78
2021/03/04 05:52:22;;;;;;;47.70;22.93;;;;;;;;;;12946755;22;20206;-78
2021/03/04 05:57:24;;;;;;;45.07;22.03;;;;;;;;;;12950946;22;20258;-78
2021/03/04 06:02:27;;;;;;;47.80;21.50;;;;;;;;;;12938406;22;20204;-77
2021/03/04 06:07:29;;;;;;;46.57;22.37;;;;;;;;;;12972085;22;20576;-79
2021/03/04 06:12:30;;;;;;;46.50;22.27;;;;;;;;;;12943743;22;20209;-77
2021/03/04 06:17:33;;;;;;;45.87;21.90;;;;;;;;;;12948474;22;20180;-77
2021/03/04 06:22:36;;;;;;;47.73;22.00;;;;;;;;;;12946149;22;20643;-77
2021/03/04 06:27:39;;;;;;;47.80;21.63;;;;;;;;;;12952394;22;20267;-78
2021/03/04 06:32:54;;;;;;;50.67;22.57;;;;;;;;;;12948566;22;20259;-78
2021/03/04 06:37:56;;;;;;;46.20;22.33;;;;;;;;;;12953096;22;20170;-76
2021/03/04 06:42:59;;;;;;;54.00;23.57;;;;;;;;;;12969511;22;20174;-76
2021/03/04 06:48:08;;;;;;;52.97;24.33;;;;;;;;;;12942711;22;20678;-77
2021/03/04 06:53:14;;;;;;;61.83;25.70;;;;;;;;;;12946961;22;20210;-75
2021/03/04 06:58:22;;;;;;;61.33;24.73;;;;;;;;;;12947335;22;20174;-76
2021/03/04 07:03:33;;;;;;;59.93;25.33;;;;;;;;;;12948808;22;20591;-76
2021/03/04 07:08:36;;;;;;;59.67;25.20;;;;;;;;;;12967365;22;20170;-76
2021/03/04 07:13:39;;;;;;;63.93;25.63;;;;;;;;;;12949384;22;20210;-75
2021/03/04 07:18:43;;;;;;;64.30;25.17;;;;;;;;;;12947482;22;20232;-75
2021/03/04 07:23:46;;;;;;;62.87;25.67;;;;;;;;;;12971726;22;20174;-76
2021/03/04 07:28:50;;;;;;;64.10;25.40;;;;;;;;;;12945757;22;20170;-76
2021/03/04 07:33:54;;;;;;;63.77;25.53;;;;;;;;;;12949907;22;20272;-76
2021/03/04 07:38:56;;;;;;;69.10;27.93;;;;;;;;;;12945928;22;20169;-76
2021/03/04 07:43:59;;;;;;;61.63;26.27;;;;;;;;;;12945995;22;20660;-75
2021/03/04 07:49:02;;;;;;;66.40;27.27;;;;;;;;;;12968478;22;20178;-74
2021/03/04 07:54:04;;;;;;;69.60;27.67;;;;;;;;;;12965081;22;20213;-76
2021/03/04 07:59:11;;;;;;;60.93;26.53;;;;;;;;;;12965007;22;20174;-76
2021/03/04 08:04:23;;;;;;;66.97;27.03;;;;;;;;;;12949765;22;20201;-74
2021/03/04 08:09:29;;;;;;;59.33;26.43;;;;;;;;;;12945163;22;20229;-74
2021/03/04 08:14:31;;;;;;;59.73;26.27;;;;;;;;;;12971807;22;20255;-74
2021/03/04 08:19:34;;;;;;;54.70;24.93;;;;;;;;;;12947558;22;20216;-75
2021/03/04 08:24:37;;;;;;;53.87;21.53;;;;;;;;;;12953216;22;20236;-75
2021/03/04 08:29:45;;;;;;;43.80;20.53;;;;;;;;;;12950478;22;20174;-75
2021/03/04 08:34:50;;;;;;;49.83;21.57;;;;;;;;;;12956810;22;20198;-75
2021/03/04 08:39:54;;;;;;;53.07;23.13;;;;;;;;;;12950389;22;20187;-74
2021/03/04 08:44:56;;;;;;;51.27;23.33;;;;;;;;;;12952625;22;20261;-75
2021/03/04 08:49:59;;;;;;;49.83;22.43;;;;;;;;;;12951679;22;20182;-75
2021/03/04 08:55:03;;;;;;;51.30;22.23;;;;;;;;;;12953833;22;20785;-74
2021/03/04 09:00:07;;;;;;;46.87;22.87;;;;;;;;;;12978404;22;20177;-74
2021/03/04 09:05:21;;;;;;;44.70;21.10;;;;;;;;;;12952582;22;20194;-74
2021/03/04 09:10:24;;;;;;;43.30;20.47;;;;;;;;;;12974845;22;20248;-74
2021/03/04 09:15:26;;;;;;;36.47;18.17;;;;;;;;;;12951483;22;20212;-74
2021/03/04 09:20:30;;;;;;;36.70;16.60;;;;;;;;;;12954353;22;20184;-77
2021/03/04 09:25:32;;;;;;;31.43;15.13;;;;;;;;;;12949066;22;20176;-75
2021/03/04 09:30:34;;;;;;;29.10;13.70;;;;;;;;;;12950100;22;20196;-75
2021/03/04 09:35:37;;;;;;;29.33;13.87;;;;;;;;;;12972409;22;20213;-74
2021/03/04 09:40:39;;;;;;;29.70;13.43;;;;;;;;;;12952229;22;20547;-75
2021/03/04 09:45:44;;;;;;;27.40;13.40;;;;;;;;;;12960888;22;20766;-75
2021/03/04 09:50:53;;;;;;;24.83;13.00;;;;;;;;;;12948282;22;20183;-77
2021/03/04 09:56:04;;;;;;;27.77;12.77;;;;;;;;;;12968174;22;20222;-75
2021/03/04 10:01:06;;;;;;;26.77;13.93;;;;;;;;;;12970951;22;20221;-75
2021/03/04 10:06:21;;;;;;;23.00;12.43;;;;;;;;;;12967778;22;20194;-75
2021/03/04 10:11:23;;;;;;;25.60;13.03;;;;;;;;;;12971387;22;20194;-75
2021/03/04 10:16:25;;;;;;;20.43;10.70;;;;;;;;;;12965606;22;20212;-75
2021/03/04 10:21:28;;;;;;;15.87;7.93;;;;;;;;;;12972017;22;20457;-76
2021/03/04 10:26:30;;;;;;;14.03;6.53;;;;;;;;;;12951372;22;20174;-75
2021/03/04 10:31:32;;;;;;;10.47;5.77;;;;;;;;;;12970475;22;20197;-76
2021/03/04 10:36:35;;;;;;;10.33;5.77;;;;;;;;;;12969372;22;20874;-75
2021/03/04 10:41:37;;;;;;;10.40;5.87;;;;;;;;;;12968529;22;20186;-75
2021/03/04 10:46:42;;;;;;;10.07;5.47;;;;;;;;;;12948541;22;20171;-75
2021/03/04 10:51:45;;;;;;;9.10;5.40;;;;;;;;;;12971043;22;20257;-75
2021/03/04 10:56:47;;;;;;;12.17;6.30;;;;;;;;;;12951412;22;20590;-75
2021/03/04 11:01:49;;;;;;;12.13;6.73;;;;;;;;;;12951372;22;20273;-76
2021/03/04 11:06:52;;;;;;;11.50;6.60;;;;;;;;;;12953126;22;20193;-74
2021/03/04 11:11:53;;;;;;;13.33;7.23;;;;;;;;;;12952657;22;20212;-76
2021/03/04 11:16:58;;;;;;;13.13;6.17;;;;;;;;;;12973142;22;20175;-76
2021/03/04 11:22:01;;;;;;;14.30;7.70;;;;;;;;;;12971988;22;20201;-75
2021/03/04 11:27:06;;;;;;;9.73;5.83;;;;;;;;;;12972864;22;20198;-75
2021/03/04 11:32:08;;;;;;;8.13;5.07;;;;;;;;;;12970761;22;21030;-75
2021/03/04 11:37:11;;;;;;;9.07;5.67;;;;;;;;;;12950213;22;20203;-75
2021/03/04 11:42:13;;;;;;;5.80;4.30;;;;;;;;;;12951329;22;20253;-75
2021/03/04 11:47:15;;;;;;;5.53;4.03;;;;;;;;;;12971698;22;20229;-76
2021/03/04 11:52:18;;;;;;;7.50;4.30;;;;;;;;;;12951504;22;20216;-75
2021/03/04 11:57:20;;;;;;;5.30;3.60;;;;;;;;;;12973491;22;20174;-76
2021/03/04 12:02:21;;;;;;;7.33;3.93;;;;;;;;;;12975507;22;20679;-75
2021/03/04 12:07:25;;;;;;;5.40;3.60;;;;;;;;;;12955543;22;20307;-77
2021/03/04 12:12:27;;;;;;;9.20;3.70;;;;;;;;;;12956142;22;20210;-78
2021/03/04 12:17:29;;;;;;;5.10;3.23;;;;;;;;;;12955107;22;20186;-76
2021/03/04 12:22:32;;;;;;;8.17;4.10;;;;;;;;;;12956395;22;20205;-75
2021/03/04 12:27:34;;;;;;;8.90;3.90;;;;;;;;;;12977288;22;20174;-75
2021/03/04 12:32:37;;;;;;;5.60;3.57;;;;;;;;;;12976850;22;20202;-76
2021/03/04 12:37:41;;;;;;;6.80;3.63;;;;;;;;;;12957835;22;20967;-75
2021/03/04 12:42:43;;;;;;;9.40;3.83;;;;;;;;;;12978789;22;20189;-75
2021/03/04 12:47:45;;;;;;;9.23;4.40;;;;;;;;;;12975025;22;20182;-77
2021/03/04 12:52:48;;;;;;;5.77;3.33;;;;;;;;;;12977278;22;20547;-75
2021/03/04 12:57:50;;;;;;;8.07;2.67;;;;;;;;;;12955519;22;20178;-76
2021/03/04 13:02:52;;;;;;;6.50;3.23;;;;;;;;;;12955310;22;20693;-75
2021/03/04 13:07:55;;;;;;;6.50;3.10;;;;;;;;;;12955862;22;20224;-78
2021/03/04 13:13:00;;;;;;;6.60;2.80;;;;;;;;;;12978588;22;20657;-80
2021/03/04 13:18:05;;;;;;;7.07;2.90;;;;;;;;;;12975138;22;20266;-81
2021/03/04 13:23:08;;;;;;;6.80;2.60;;;;;;;;;;12976308;22;20209;-76
2021/03/04 13:28:10;;;;;;;5.30;2.50;;;;;;;;;;12976790;22;20210;-78
2021/03/04 13:33:12;;;;;;;8.03;2.83;;;;;;;;;;12974952;22;20198;-76
2021/03/04 13:38:15;;;;;;;7.80;3.33;;;;;;;;;;12975108;22;20783;-77
2021/03/04 13:43:19;;;;;;;7.90;3.83;;;;;;;;;;12973136;22;20181;-75
2021/03/04 13:48:28;;;;;;;5.93;2.40;;;;;;;;;;12968431;22;20978;-76
2021/03/04 13:53:33;;;;;;;5.93;2.67;;;;;;;;;;12973527;22;20204;-76
2021/03/04 13:58:36;;;;;;;6.47;2.50;;;;;;;;;;12972501;22;20632;-76
2021/03/04 14:03:39;;;;;;;5.27;2.20;;;;;;;;;;12951054;22;20229;-77
2021/03/04 14:08:43;;;;;;;7.57;2.40;;;;;;;;;;12973569;22;20178;-76
2021/03/04 14:13:47;;;;;;;5.47;2.77;;;;;;;;;;12975216;22;20288;-76
2021/03/04 14:18:51;;;;;;;4.53;2.73;;;;;;;;;;12975911;22;20167;-76
2021/03/04 14:23:56;;;;;;;7.67;3.93;;;;;;;;;;12952807;22;20210;-76
2021/03/04 14:34:27;;;;;;;8.40;3.00;;;;;;;;;;10487631;27;20562;-77
2021/03/04 14:39:29;;;;;;;6.97;3.00;;;;;;;;;;10450288;28;20222;-78
2021/03/04 14:44:31;;;;;;;6.70;3.30;;;;;;;;;;10444027;28;20595;-77
2021/03/04 14:49:34;;;;;;;8.23;2.80;;;;;;;;;;10451670;28;20225;-77
2021/03/04 14:54:37;;;;;;;12.47;2.43;;;;;;;;;;10436670;28;20207;-77
2021/03/04 14:59:39;;;;;;;9.10;2.30;;;;;;;;;;10440334;28;20529;-78
2021/03/04 15:04:41;;;;;;;11.90;2.70;;;;;;;;;;10442525;28;20876;-77
2021/03/04 15:09:43;;;;;;;10.97;2.30;;;;;;;;;;10436378;28;20207;-77
2021/03/04 15:14:50;;;;;;;10.93;2.73;;;;;;;;;;10450405;28;20215;-74
2021/03/04 15:19:54;;;;;;;8.13;2.30;;;;;;;;;;10448793;28;20214;-76
2021/03/04 15:24:56;;;;;;;10.33;2.33;;;;;;;;;;10427242;28;20211;-75
2021/03/04 15:29:58;;;;;;;10.83;2.53;;;;;;;;;;10440417;28;20239;-75
2021/03/04 15:35:03;;;;;;;8.87;2.63;;;;;;;;;;10435003;28;20210;-77
2021/03/04 15:40:05;;;;;;;11.93;2.17;;;;;;;;;;10429225;28;20583;-76
2021/03/04 15:45:07;;;;;;;9.83;2.40;;;;;;;;;;10409182;28;20266;-75
2021/03/04 15:50:11;;;;;;;7.73;2.40;;;;;;;;;;10396346;28;20239;-75
2021/03/04 15:55:13;;;;;;;10.80;2.27;;;;;;;;;;10399179;28;20295;-77
2021/03/04 16:00:15;;;;;;;14.43;4.67;;;;;;;;;;10401719;28;20216;-75
2021/03/04 16:05:18;;;;;;;11.90;4.47;;;;;;;;;;10399644;28;20579;-76
2021/03/04 16:10:20;;;;;;;10.60;2.80;;;;;;;;;;10395626;28;20232;-77
2021/03/04 16:15:22;;;;;;;8.77;2.03;;;;;;;;;;10401184;28;20218;-77
2021/03/04 16:20:25;;;;;;;7.50;2.30;;;;;;;;;;10399950;28;20307;-77
2021/03/04 16:25:27;;;;;;;8.87;1.90;;;;;;;;;;10404563;28;20208;-76
2021/03/04 16:30:49;;;;;;;6.83;2.20;;;;;;;;;;10408596;28;20239;-75
2021/03/04 16:35:52;;;;;;;9.33;2.20;;;;;;;;;;10402478;28;20219;-77
2021/03/04 16:40:53;;;;;;;11.90;2.50;;;;;;;;;;10398080;28;20209;-76
2021/03/04 16:45:55;;;;;;;11.13;2.67;;;;;;;;;;10400003;28;20696;-74
2021/03/04 16:50:58;;;;;;;13.43;3.13;;;;;;;;;;10407002;28;20232;-76
2021/03/04 16:56:01;;;;;;;13.93;3.80;;;;;;;;;;10395801;28;20628;-75
2021/03/04 17:01:03;;;;;;;17.80;4.33;;;;;;;;;;10398796;28;20211;-77
2021/03/04 17:06:18;;;;;;;17.30;5.27;;;;;;;;;;10400229;28;20739;-76
2021/03/04 17:11:20;;;;;;;19.80;4.90;;;;;;;;;;10391264;28;20232;-75
2021/03/04 17:16:22;;;;;;;16.93;4.13;;;;;;;;;;10408866;28;20216;-77
2021/03/04 17:21:26;;;;;;;20.13;3.83;;;;;;;;;;10406031;28;20231;-77
2021/03/04 17:26:27;;;;;;;17.10;3.90;;;;;;;;;;10397397;28;20212;-86
2021/03/04 17:31:29;;;;;;;18.77;4.50;;;;;;;;;;10395506;28;20285;-81
2021/03/04 17:36:33;;;;;;;16.10;3.30;;;;;;;;;;10399775;28;20216;-78
2021/03/04 17:41:35;;;;;;;16.07;3.60;;;;;;;;;;10387598;28;20684;-78
2021/03/04 17:46:37;;;;;;;12.83;2.90;;;;;;;;;;10389622;28;20235;-78
2021/03/04 17:51:40;;;;;;;13.13;3.07;;;;;;;;;;10384051;28;20243;-79
2021/03/04 17:56:42;;;;;;;16.47;3.37;;;;;;;;;;10396539;28;20212;-78
2021/03/04 18:01:44;;;;;;;13.83;3.00;;;;;;;;;;10383913;28;20207;-78
2021/03/04 18:06:46;;;;;;;12.53;2.93;;;;;;;;;;10387715;28;20299;-78
2021/03/04 18:11:48;;;;;;;16.30;2.60;;;;;;;;;;10388884;28;20236;-78
2021/03/04 18:16:50;;;;;;;11.50;3.00;;;;;;;;;;10391560;28;20665;-77
2021/03/04 18:21:53;;;;;;;12.53;3.03;;;;;;;;;;10390692;28;20595;-78
2021/03/04 18:26:55;;;;;;;13.70;3.07;;;;;;;;;;10390343;28;20211;-84
2021/03/04 18:32:02;;;;;;;15.17;3.30;;;;;;;;;;10389041;28;20692;-79
2021/03/04 18:37:05;;;;;;;9.47;2.67;;;;;;;;;;10394848;28;20253;-83
2021/03/04 18:42:07;;;;;;;10.83;3.13;;;;;;;;;;10397667;28;20594;-80
2021/03/04 18:47:09;;;;;;;9.93;2.57;;;;;;;;;;10392106;28;20219;-79
2021/03/04 18:52:12;;;;;;;6.77;2.37;;;;;;;;;;10397098;28;20704;-77
2021/03/04 18:57:18;;;;;;;10.00;2.97;;;;;;;;;;10384881;28;20596;-77
2021/03/04 19:02:26;;;;;;;14.13;3.07;;;;;;;;;;10387647;28;20211;-79
2021/03/04 19:07:29;;;;;;;14.43;3.10;;;;;;;;;;10380617;28;20224;-79
2021/03/04 19:12:31;;;;;;;14.40;3.27;;;;;;;;;;10389804;28;20252;-76
2021/03/04 19:17:33;;;;;;;13.07;3.20;;;;;;;;;;10388101;28;20775;-77
2021/03/04 19:22:37;;;;;;;12.80;2.90;;;;;;;;;;10397766;28;20725;-79
2021/03/04 19:27:39;;;;;;;10.07;2.83;;;;;;;;;;10397680;28;20208;-78
2021/03/04 19:32:41;;;;;;;13.07;3.10;;;;;;;;;;10399238;28;20690;-78
2021/03/04 19:37:44;;;;;;;6.73;2.73;;;;;;;;;;10396815;28;20677;-79
2021/03/04 19:42:46;;;;;;;15.57;3.40;;;;;;;;;;10392097;28;20220;-78
2021/03/04 19:47:48;;;;;;;14.57;2.97;;;;;;;;;;10394064;28;20829;-80
2021/03/04 19:52:51;;;;;;;19.97;3.20;;;;;;;;;;10390552;28;20232;-78
2021/03/04 19:57:53;;;;;;;13.63;2.83;;;;;;;;;;10400574;28;20216;-77
2021/03/04 20:02:55;;;;;;;10.03;2.73;;;;;;;;;;10407874;28;20600;-77
2021/03/04 20:08:00;;;;;;;14.60;3.10;;;;;;;;;;10395176;28;20211;-77
2021/03/04 20:13:02;;;;;;;15.03;3.23;;;;;;;;;;10399594;28;20235;-77
2021/03/04 20:18:04;;;;;;;15.40;3.40;;;;;;;;;;10388670;28;20216;-77
2021/03/04 20:23:08;;;;;;;21.53;3.40;;;;;;;;;;10396972;28;20302;-77
2021/03/04 20:28:10;;;;;;;16.30;3.37;;;;;;;;;;10393466;28;20291;-77
2021/03/04 20:33:12;;;;;;;15.53;4.77;;;;;;;;;;10394963;28;22206;-77
2021/03/04 20:38:15;;;;;;;13.40;3.50;;;;;;;;;;10392732;28;20307;-77
2021/03/04 20:43:17;;;;;;;9.43;2.90;;;;;;;;;;10393242;28;20297;-77
2021/03/04 20:48:19;;;;;;;13.23;2.97;;;;;;;;;;10393684;28;20218;-77
2021/03/04 20:53:22;;;;;;;18.20;3.07;;;;;;;;;;10394485;28;20308;-77
2021/03/04 20:58:25;;;;;;;7.40;2.60;;;;;;;;;;10391388;28;20989;-77
2021/03/04 21:03:27;;;;;;;13.47;2.83;;;;;;;;;;10393661;28;20212;-77
2021/03/04 21:08:31;;;;;;;15.90;3.73;;;;;;;;;;10388548;28;20207;-77
2021/03/04 21:13:33;;;;;;;16.13;3.10;;;;;;;;;;10380769;28;20744;-76
2021/03/04 21:18:35;;;;;;;13.70;3.03;;;;;;;;;;10394677;28;20206;-76
2021/03/04 21:23:41;;;;;;;10.17;2.53;;;;;;;;;;10389550;28;20695;-78
2021/03/04 21:28:45;;;;;;;12.77;3.50;;;;;;;;;;10386691;28;20302;-79
2021/03/04 21:33:46;;;;;;;11.70;3.17;;;;;;;;;;10387326;28;20660;-79
2021/03/04 21:38:49;;;;;;;10.30;2.83;;;;;;;;;;10394532;28;20211;-78
2021/03/04 21:43:51;;;;;;;13.20;2.83;;;;;;;;;;10398510;28;20222;-77
2021/03/04 21:48:53;;;;;;;9.97;3.43;;;;;;;;;;10407695;28;20220;-77
2021/03/04 21:53:56;;;;;;;13.07;2.90;;;;;;;;;;10399542;28;20232;-78
2021/03/04 21:58:58;;;;;;;12.93;2.80;;;;;;;;;;10401496;28;20212;-79
2021/03/04 22:04:00;;;;;;;8.00;2.10;;;;;;;;;;10403238;28;20204;-78
2021/03/04 22:09:05;;;;;;;6.47;2.13;;;;;;;;;;10405443;28;20222;-78
2021/03/04 22:14:07;;;;;;;11.00;2.60;;;;;;;;;;10396972;28;20243;-77
2021/03/04 22:19:09;;;;;;;9.07;2.40;;;;;;;;;;10404366;28;20220;-77
2021/03/04 22:24:11;;;;;;;14.13;2.57;;;;;;;;;;10400810;28;20719;-77
2021/03/04 22:29:13;;;;;;;10.87;2.67;;;;;;;;;;10400926;28;20220;-76
2021/03/04 22:34:15;;;;;;;8.90;2.40;;;;;;;;;;10402922;28;20235;-79
2021/03/04 22:39:18;;;;;;;6.40;2.07;;;;;;;;;;10404007;28;20657;-77
2021/03/04 22:44:23;;;;;;;9.53;2.70;;;;;;;;;;10413761;28;20261;-77
2021/03/04 22:49:26;;;;;;;6.60;2.53;;;;;;;;;;10399083;28;20212;-76
2021/03/04 22:54:29;;;;;;;10.63;3.20;;;;;;;;;;10406816;28;20949;-77
2021/03/04 22:59:31;;;;;;;7.77;2.90;;;;;;;;;;10409729;28;20219;-77
2021/03/04 23:04:32;;;;;;;9.10;2.73;;;;;;;;;;10404292;28;20600;-76
2021/03/04 23:09:35;;;;;;;9.77;3.70;;;;;;;;;;10408780;28;20207;-76
2021/03/04 23:14:38;;;;;;;12.47;3.70;;;;;;;;;;10411369;28;20231;-77
2021/03/04 23:19:40;;;;;;;11.37;3.67;;;;;;;;;;10410071;28;20232;-76
2021/03/04 23:24:43;;;;;;;9.93;4.53;;;;;;;;;;10412225;28;20736;-76
2021/03/04 23:29:45;;;;;;;6.53;4.07;;;;;;;;;;10400051;28;20240;-77
2021/03/04 23:34:47;;;;;;;10.53;4.60;;;;;;;;;;10398044;28;20259;-77
2021/03/04 23:39:50;;;;;;;7.03;4.20;;;;;;;;;;10397051;28;20701;-77
2021/03/04 23:44:52;;;;;;;9.10;4.77;;;;;;;;;;10397972;28;20222;-78
2021/03/04 23:49:54;;;;;;;6.80;4.33;;;;;;;;;;10397132;28;20215;-77
2021/03/04 23:54:57;;;;;;;8.13;5.17;;;;;;;;;;10405415;28;20239;-75
2021/03/04 23:59:59;;;;;;;8.97;5.13;;;;;;;;;;10409752;28;20211;-76
